sensor_id;sensor_type;location;lat;lon;timestamp;P1;durP1;ratioP1;P2;durP2;ratioP2
16516;SDS011;8371;52.272;9.746;2022-12-17T00:02:04;6.07;;;5.77;;
16516;SDS011;8371;52.272;9.746;2022-12-17T00:04:49;6.07;;;5.80;;
16516;SDS011;8371;52.272;9.746;2022-12-17T00:07:33;6.17;;;5.60;;
16516;SDS011;8371;52.272;9.746;2022-12-17T00:10:17;6.73;;;6.33;;
16516;SDS011;8371;52.272;9.746;2022-12-17T00:13:01;6.30;;;6.00;;
16516;SDS011;8371;52.272;9.746;2022-12-17T00:15:51;5.70;;;5.37;;
16516;SDS011;8371;52.272;9.746;2022-12-17T00:18:35;6.13;;;5.73;;
16516;SDS011;8371;52.272;9.746;2022-12-17T00:21:20;5.07;;;4.83;;
16516;SDS011;8371;52.272;9.746;2022-12-17T00:27:08;5.97;;;5.67;;
16516;SDS011;8371;52.272;9.746;2022-12-17T00:29:52;4.93;;;4.63;;
16516;SDS011;8371;52.272;9.746;2022-12-17T00:32:37;6.07;;;5.73;;
16516;SDS011;8371;52.272;9.746;2022-12-17T00:35:21;5.47;;;5.20;;
16516;SDS011;8371;52.272;9.746;2022-12-17T00:38:05;6.53;;;6.03;;
16516;SDS011;8371;52.272;9.746;2022-12-17T00:40:57;5.67;;;5.20;;
16516;SDS011;8371;52.272;9.746;2022-12-17T00:43:42;5.73;;;5.33;;
16516;SDS011;8371;52.272;9.746;2022-12-17T00:46:26;6.17;;;5.20;;
16516;SDS011;8371;52.272;9.746;2022-12-17T00:49:10;5.27;;;5.07;;
16516;SDS011;8371;52.272;9.746;2022-12-17T00:51:54;5.80;;;5.50;;
16516;SDS011;8371;52.272;9.746;2022-12-17T00:54:38;5.70;;;5.50;;
16516;SDS011;8371;52.272;9.746;2022-12-17T00:57:22;6.07;;;5.77;;
16516;SDS011;8371;52.272;9.746;2022-12-17T01:00:06;6.77;;;6.37;;
16516;SDS011;8371;52.272;9.746;2022-12-17T01:02:51;5.50;;;5.20;;
16516;SDS011;8371;52.272;9.746;2022-12-17T01:05:36;5.70;;;5.40;;
16516;SDS011;8371;52.272;9.746;2022-12-17T01:08:20;5.20;;;5.00;;
16516;SDS011;8371;52.272;9.746;2022-12-17T01:10:57;5.93;;;5.53;;
16516;SDS011;8371;52.272;9.746;2022-12-17T01:13:46;4.80;;;4.60;;
16516;SDS011;8371;52.272;9.746;2022-12-17T01:16:30;5.10;;;4.90;;
16516;SDS011;8371;52.272;9.746;2022-12-17T01:19:14;4.53;;;4.33;;
16516;SDS011;8371;52.272;9.746;2022-12-17T01:21:59;4.27;;;4.07;;
16516;SDS011;8371;52.272;9.746;2022-12-17T01:24:42;4.60;;;4.40;;
16516;SDS011;8371;52.272;9.746;2022-12-17T01:27:26;4.97;;;4.57;;
16516;SDS011;8371;52.272;9.746;2022-12-17T01:30:10;4.40;;;4.20;;
16516;SDS011;8371;52.272;9.746;2022-12-17T01:33:04;4.17;;;3.97;;
16516;SDS011;8371;52.272;9.746;2022-12-17T01:35:53;7.70;;;4.63;;
16516;SDS011;8371;52.272;9.746;2022-12-17T01:38:38;4.53;;;4.20;;
16516;SDS011;8371;52.272;9.746;2022-12-17T01:41:22;3.87;;;3.67;;
16516;SDS011;8371;52.272;9.746;2022-12-17T01:47:19;4.80;;;4.60;;
16516;SDS011;8371;52.272;9.746;2022-12-17T01:50:03;4.77;;;4.53;;
16516;SDS011;8371;52.272;9.746;2022-12-17T01:52:48;5.27;;;5.00;;
16516;SDS011;8371;52.272;9.746;2022-12-17T01:55:36;4.40;;;4.10;;
16516;SDS011;8371;52.272;9.746;2022-12-17T01:58:20;4.60;;;4.40;;
16516;SDS011;8371;52.272;9.746;2022-12-17T02:01:04;4.67;;;4.43;;
16516;SDS011;8371;52.272;9.746;2022-12-17T02:03:48;4.47;;;4.20;;
16516;SDS011;8371;52.272;9.746;2022-12-17T02:06:32;4.50;;;4.20;;
16516;SDS011;8371;52.272;9.746;2022-12-17T02:09:28;4.63;;;4.43;;
16516;SDS011;8371;52.272;9.746;2022-12-17T02:12:24;3.73;;;3.53;;
16516;SDS011;8371;52.272;9.746;2022-12-17T02:18:05;6.67;;;6.30;;
16516;SDS011;8371;52.272;9.746;2022-12-17T02:20:52;5.30;;;5.00;;
16516;SDS011;8371;52.272;9.746;2022-12-17T02:26:37;5.47;;;5.03;;
16516;SDS011;8371;52.272;9.746;2022-12-17T02:29:30;5.13;;;4.93;;
16516;SDS011;8371;52.272;9.746;2022-12-17T02:34:30;4.97;;;4.67;;
16516;SDS011;8371;52.272;9.746;2022-12-17T02:37:14;5.00;;;4.80;;
16516;SDS011;8371;52.272;9.746;2022-12-17T02:39:58;3.93;;;3.73;;
16516;SDS011;8371;52.272;9.746;2022-12-17T02:42:43;4.00;;;3.80;;
16516;SDS011;8371;52.272;9.746;2022-12-17T02:45:29;4.07;;;3.87;;
16516;SDS011;8371;52.272;9.746;2022-12-17T02:48:16;4.07;;;3.77;;
16516;SDS011;8371;52.272;9.746;2022-12-17T02:51:00;4.27;;;4.07;;
16516;SDS011;8371;52.272;9.746;2022-12-17T02:53:48;4.97;;;4.57;;
16516;SDS011;8371;52.272;9.746;2022-12-17T02:56:22;3.80;;;3.50;;
16516;SDS011;8371;52.272;9.746;2022-12-17T02:59:08;3.90;;;3.70;;
16516;SDS011;8371;52.272;9.746;2022-12-17T03:01:52;4.13;;;3.93;;
16516;SDS011;8371;52.272;9.746;2022-12-17T03:04:36;4.27;;;4.07;;
16516;SDS011;8371;52.272;9.746;2022-12-17T03:07:20;4.97;;;4.67;;
16516;SDS011;8371;52.272;9.746;2022-12-17T03:10:04;4.90;;;4.50;;
16516;SDS011;8371;52.272;9.746;2022-12-17T03:12:49;5.10;;;4.80;;
16516;SDS011;8371;52.272;9.746;2022-12-17T03:15:33;4.70;;;4.50;;
16516;SDS011;8371;52.272;9.746;2022-12-17T03:18:17;4.80;;;4.53;;
16516;SDS011;8371;52.272;9.746;2022-12-17T03:21:02;4.60;;;4.40;;
16516;SDS011;8371;52.272;9.746;2022-12-17T03:23:46;4.50;;;4.30;;
16516;SDS011;8371;52.272;9.746;2022-12-17T03:26:30;3.73;;;3.53;;
16516;SDS011;8371;52.272;9.746;2022-12-17T03:29:15;4.63;;;4.43;;
16516;SDS011;8371;52.272;9.746;2022-12-17T03:31:59;3.77;;;3.57;;
16516;SDS011;8371;52.272;9.746;2022-12-17T03:34:43;4.07;;;3.97;;
16516;SDS011;8371;52.272;9.746;2022-12-17T03:37:27;3.93;;;3.73;;
16516;SDS011;8371;52.272;9.746;2022-12-17T03:40:11;4.93;;;4.73;;
16516;SDS011;8371;52.272;9.746;2022-12-17T03:42:56;5.10;;;4.80;;
16516;SDS011;8371;52.272;9.746;2022-12-17T03:45:40;3.67;;;3.47;;
16516;SDS011;8371;52.272;9.746;2022-12-17T03:48:24;3.77;;;3.57;;
16516;SDS011;8371;52.272;9.746;2022-12-17T03:51:08;4.10;;;3.90;;
16516;SDS011;8371;52.272;9.746;2022-12-17T03:53:53;4.10;;;3.90;;
16516;SDS011;8371;52.272;9.746;2022-12-17T03:56:37;4.47;;;4.27;;
16516;SDS011;8371;52.272;9.746;2022-12-17T03:59:21;4.70;;;4.40;;
16516;SDS011;8371;52.272;9.746;2022-12-17T04:02:05;3.83;;;3.63;;
16516;SDS011;8371;52.272;9.746;2022-12-17T04:04:50;4.20;;;4.00;;
16516;SDS011;8371;52.272;9.746;2022-12-17T04:07:34;4.23;;;4.03;;
16516;SDS011;8371;52.272;9.746;2022-12-17T04:10:18;3.60;;;3.40;;
16516;SDS011;8371;52.272;9.746;2022-12-17T04:13:02;4.07;;;3.87;;
16516;SDS011;8371;52.272;9.746;2022-12-17T04:15:47;4.43;;;4.13;;
16516;SDS011;8371;52.272;9.746;2022-12-17T04:18:31;4.10;;;3.90;;
16516;SDS011;8371;52.272;9.746;2022-12-17T04:21:15;4.03;;;3.83;;
16516;SDS011;8371;52.272;9.746;2022-12-17T04:24:00;5.17;;;4.87;;
16516;SDS011;8371;52.272;9.746;2022-12-17T04:26:44;4.70;;;4.50;;
16516;SDS011;8371;52.272;9.746;2022-12-17T04:29:28;4.57;;;4.37;;
16516;SDS011;8371;52.272;9.746;2022-12-17T04:32:12;4.20;;;3.90;;
16516;SDS011;8371;52.272;9.746;2022-12-17T04:34:57;4.47;;;4.27;;
16516;SDS011;8371;52.272;9.746;2022-12-17T04:37:41;4.13;;;3.93;;
16516;SDS011;8371;52.272;9.746;2022-12-17T04:40:25;4.00;;;3.80;;
16516;SDS011;8371;52.272;9.746;2022-12-17T04:43:10;4.63;;;4.37;;
16516;SDS011;8371;52.272;9.746;2022-12-17T04:45:56;4.07;;;3.87;;
16516;SDS011;8371;52.272;9.746;2022-12-17T04:48:40;4.13;;;3.93;;
16516;SDS011;8371;52.272;9.746;2022-12-17T04:51:25;3.87;;;3.73;;
16516;SDS011;8371;52.272;9.746;2022-12-17T04:54:09;3.57;;;3.47;;
16516;SDS011;8371;52.272;9.746;2022-12-17T04:56:54;4.27;;;3.97;;
16516;SDS011;8371;52.272;9.746;2022-12-17T04:59:38;4.03;;;3.83;;
16516;SDS011;8371;52.272;9.746;2022-12-17T05:02:23;4.37;;;4.00;;
16516;SDS011;8371;52.272;9.746;2022-12-17T05:05:08;4.47;;;4.17;;
16516;SDS011;8371;52.272;9.746;2022-12-17T05:07:53;4.10;;;3.90;;
16516;SDS011;8371;52.272;9.746;2022-12-17T05:10:38;3.97;;;3.83;;
16516;SDS011;8371;52.272;9.746;2022-12-17T05:13:22;4.30;;;4.10;;
16516;SDS011;8371;52.272;9.746;2022-12-17T05:16:06;3.87;;;3.67;;
16516;SDS011;8371;52.272;9.746;2022-12-17T05:18:51;4.47;;;4.27;;
16516;SDS011;8371;52.272;9.746;2022-12-17T05:21:37;4.70;;;4.40;;
16516;SDS011;8371;52.272;9.746;2022-12-17T05:24:22;4.47;;;4.27;;
16516;SDS011;8371;52.272;9.746;2022-12-17T05:27:06;3.70;;;3.50;;
16516;SDS011;8371;52.272;9.746;2022-12-17T05:29:51;3.80;;;3.50;;
16516;SDS011;8371;52.272;9.746;2022-12-17T05:32:35;4.30;;;4.00;;
16516;SDS011;8371;52.272;9.746;2022-12-17T05:35:19;3.87;;;3.57;;
16516;SDS011;8371;52.272;9.746;2022-12-17T05:38:08;3.87;;;3.67;;
16516;SDS011;8371;52.272;9.746;2022-12-17T05:40:57;4.17;;;3.93;;
16516;SDS011;8371;52.272;9.746;2022-12-17T05:43:42;4.13;;;3.83;;
16516;SDS011;8371;52.272;9.746;2022-12-17T05:46:27;4.27;;;4.07;;
16516;SDS011;8371;52.272;9.746;2022-12-17T05:49:12;4.73;;;4.50;;
16516;SDS011;8371;52.272;9.746;2022-12-17T05:51:56;4.23;;;3.93;;
16516;SDS011;8371;52.272;9.746;2022-12-17T05:54:40;4.00;;;3.80;;
16516;SDS011;8371;52.272;9.746;2022-12-17T05:57:25;4.07;;;3.73;;
16516;SDS011;8371;52.272;9.746;2022-12-17T06:00:09;4.43;;;3.93;;
16516;SDS011;8371;52.272;9.746;2022-12-17T06:02:59;4.03;;;3.70;;
16516;SDS011;8371;52.272;9.746;2022-12-17T06:05:45;3.63;;;3.43;;
16516;SDS011;8371;52.272;9.746;2022-12-17T06:08:30;3.33;;;3.20;;
16516;SDS011;8371;52.272;9.746;2022-12-17T06:11:15;3.27;;;3.13;;
16516;SDS011;8371;52.272;9.746;2022-12-17T06:14:00;3.40;;;3.20;;
16516;SDS011;8371;52.272;9.746;2022-12-17T06:16:44;3.80;;;3.60;;
16516;SDS011;8371;52.272;9.746;2022-12-17T06:19:30;3.43;;;3.20;;
16516;SDS011;8371;52.272;9.746;2022-12-17T06:22:14;3.07;;;2.87;;
16516;SDS011;8371;52.272;9.746;2022-12-17T06:24:59;3.27;;;3.17;;
16516;SDS011;8371;52.272;9.746;2022-12-17T06:27:43;2.87;;;2.73;;
16516;SDS011;8371;52.272;9.746;2022-12-17T06:30:27;2.90;;;2.80;;
16516;SDS011;8371;52.272;9.746;2022-12-17T06:33:12;3.93;;;3.73;;
16516;SDS011;8371;52.272;9.746;2022-12-17T06:35:59;2.83;;;2.73;;
16516;SDS011;8371;52.272;9.746;2022-12-17T06:38:43;3.00;;;2.90;;
16516;SDS011;8371;52.272;9.746;2022-12-17T06:41:27;3.30;;;3.10;;
16516;SDS011;8371;52.272;9.746;2022-12-17T06:44:12;2.93;;;2.83;;
16516;SDS011;8371;52.272;9.746;2022-12-17T06:46:57;3.17;;;3.07;;
16516;SDS011;8371;52.272;9.746;2022-12-17T06:49:41;4.07;;;3.90;;
16516;SDS011;8371;52.272;9.746;2022-12-17T06:52:25;3.80;;;3.60;;
16516;SDS011;8371;52.272;9.746;2022-12-17T06:55:09;3.93;;;3.60;;
16516;SDS011;8371;52.272;9.746;2022-12-17T06:58:00;3.90;;;3.70;;
16516;SDS011;8371;52.272;9.746;2022-12-17T07:00:45;2.80;;;2.60;;
16516;SDS011;8371;52.272;9.746;2022-12-17T07:03:29;3.10;;;2.80;;
16516;SDS011;8371;52.272;9.746;2022-12-17T07:06:14;3.43;;;3.23;;
16516;SDS011;8371;52.272;9.746;2022-12-17T07:08:59;2.83;;;2.73;;
16516;SDS011;8371;52.272;9.746;2022-12-17T07:11:43;3.30;;;3.10;;
16516;SDS011;8371;52.272;9.746;2022-12-17T07:14:27;3.90;;;3.60;;
16516;SDS011;8371;52.272;9.746;2022-12-17T07:17:11;3.10;;;3.00;;
16516;SDS011;8371;52.272;9.746;2022-12-17T07:19:55;2.87;;;2.77;;
16516;SDS011;8371;52.272;9.746;2022-12-17T07:22:39;2.77;;;2.67;;
16516;SDS011;8371;52.272;9.746;2022-12-17T07:25:24;3.00;;;2.90;;
16516;SDS011;8371;52.272;9.746;2022-12-17T07:28:08;3.30;;;3.10;;
16516;SDS011;8371;52.272;9.746;2022-12-17T07:30:55;2.37;;;2.27;;
16516;SDS011;8371;52.272;9.746;2022-12-17T07:33:40;3.20;;;3.10;;
16516;SDS011;8371;52.272;9.746;2022-12-17T07:36:24;2.73;;;2.63;;
16516;SDS011;8371;52.272;9.746;2022-12-17T07:39:08;3.10;;;3.00;;
16516;SDS011;8371;52.272;9.746;2022-12-17T07:41:52;2.70;;;2.60;;
16516;SDS011;8371;52.272;9.746;2022-12-17T07:44:36;2.70;;;2.60;;
16516;SDS011;8371;52.272;9.746;2022-12-17T07:47:21;3.23;;;2.93;;
16516;SDS011;8371;52.272;9.746;2022-12-17T07:50:05;3.20;;;3.00;;
16516;SDS011;8371;52.272;9.746;2022-12-17T07:53:03;3.20;;;3.00;;
16516;SDS011;8371;52.272;9.746;2022-12-17T07:55:46;3.37;;;3.17;;
16516;SDS011;8371;52.272;9.746;2022-12-17T07:58:30;3.57;;;3.37;;
16516;SDS011;8371;52.272;9.746;2022-12-17T08:01:14;3.17;;;3.07;;
16516;SDS011;8371;52.272;9.746;2022-12-17T08:03:58;3.40;;;3.20;;
16516;SDS011;8371;52.272;9.746;2022-12-17T08:06:43;4.43;;;4.13;;
16516;SDS011;8371;52.272;9.746;2022-12-17T08:09:27;3.87;;;3.67;;
16516;SDS011;8371;52.272;9.746;2022-12-17T08:12:11;3.63;;;3.43;;
16516;SDS011;8371;52.272;9.746;2022-12-17T08:14:55;3.60;;;3.47;;
16516;SDS011;8371;52.272;9.746;2022-12-17T08:17:40;3.90;;;3.70;;
16516;SDS011;8371;52.272;9.746;2022-12-17T08:20:24;4.13;;;3.83;;
16516;SDS011;8371;52.272;9.746;2022-12-17T08:23:08;4.10;;;3.80;;
16516;SDS011;8371;52.272;9.746;2022-12-17T08:25:52;3.30;;;3.20;;
16516;SDS011;8371;52.272;9.746;2022-12-17T08:28:37;4.23;;;4.03;;
16516;SDS011;8371;52.272;9.746;2022-12-17T08:31:24;4.10;;;3.90;;
16516;SDS011;8371;52.272;9.746;2022-12-17T08:34:09;4.30;;;4.10;;
16516;SDS011;8371;52.272;9.746;2022-12-17T08:36:53;8.27;;;3.47;;
16516;SDS011;8371;52.272;9.746;2022-12-17T08:39:37;4.13;;;3.83;;
16516;SDS011;8371;52.272;9.746;2022-12-17T08:42:21;4.50;;;4.30;;
16516;SDS011;8371;52.272;9.746;2022-12-17T08:45:05;4.40;;;4.20;;
16516;SDS011;8371;52.272;9.746;2022-12-17T08:47:50;4.20;;;4.00;;
16516;SDS011;8371;52.272;9.746;2022-12-17T08:50:34;4.40;;;4.20;;
16516;SDS011;8371;52.272;9.746;2022-12-17T08:53:18;4.40;;;4.20;;
16516;SDS011;8371;52.272;9.746;2022-12-17T08:56:02;4.20;;;4.00;;
16516;SDS011;8371;52.272;9.746;2022-12-17T08:58:39;3.90;;;3.70;;
16516;SDS011;8371;52.272;9.746;2022-12-17T09:01:23;4.60;;;4.40;;
16516;SDS011;8371;52.272;9.746;2022-12-17T09:04:07;4.23;;;4.03;;
16516;SDS011;8371;52.272;9.746;2022-12-17T09:06:51;4.57;;;4.37;;
16516;SDS011;8371;52.272;9.746;2022-12-17T09:09:35;4.60;;;4.33;;
16516;SDS011;8371;52.272;9.746;2022-12-17T09:12:20;4.03;;;3.83;;
16516;SDS011;8371;52.272;9.746;2022-12-17T09:15:04;5.00;;;4.60;;
16516;SDS011;8371;52.272;9.746;2022-12-17T09:17:50;4.33;;;4.13;;
16516;SDS011;8371;52.272;9.746;2022-12-17T09:20:34;3.53;;;3.40;;
16516;SDS011;8371;52.272;9.746;2022-12-17T09:23:19;4.80;;;4.60;;
16516;SDS011;8371;52.272;9.746;2022-12-17T09:26:03;5.20;;;5.00;;
16516;SDS011;8371;52.272;9.746;2022-12-17T09:28:48;5.13;;;4.83;;
16516;SDS011;8371;52.272;9.746;2022-12-17T09:31:32;4.70;;;4.43;;
16516;SDS011;8371;52.272;9.746;2022-12-17T09:34:17;4.73;;;4.47;;
16516;SDS011;8371;52.272;9.746;2022-12-17T09:37:02;5.00;;;4.70;;
16516;SDS011;8371;52.272;9.746;2022-12-17T09:39:47;4.80;;;4.50;;
16516;SDS011;8371;52.272;9.746;2022-12-17T09:42:39;5.03;;;4.73;;
16516;SDS011;8371;52.272;9.746;2022-12-17T09:45:35;4.70;;;4.50;;
16516;SDS011;8371;52.272;9.746;2022-12-17T09:48:34;4.57;;;4.37;;
16516;SDS011;8371;52.272;9.746;2022-12-17T09:51:26;5.47;;;5.17;;
16516;SDS011;8371;52.272;9.746;2022-12-17T09:54:19;5.07;;;4.83;;
16516;SDS011;8371;52.272;9.746;2022-12-17T09:57:03;5.53;;;5.23;;
16516;SDS011;8371;52.272;9.746;2022-12-17T09:59:49;5.10;;;4.90;;
16516;SDS011;8371;52.272;9.746;2022-12-17T10:02:33;5.17;;;4.67;;
16516;SDS011;8371;52.272;9.746;2022-12-17T10:05:21;4.97;;;4.77;;
16516;SDS011;8371;52.272;9.746;2022-12-17T10:08:12;4.80;;;4.50;;
16516;SDS011;8371;52.272;9.746;2022-12-17T10:14:12;4.27;;;4.07;;
16516;SDS011;8371;52.272;9.746;2022-12-17T10:17:01;4.77;;;4.57;;
16516;SDS011;8371;52.272;9.746;2022-12-17T10:19:48;5.07;;;4.73;;
16516;SDS011;8371;52.272;9.746;2022-12-17T10:22:44;4.77;;;4.57;;
16516;SDS011;8371;52.272;9.746;2022-12-17T10:25:30;5.37;;;5.07;;
16516;SDS011;8371;52.272;9.746;2022-12-17T10:28:19;5.30;;;5.00;;
16516;SDS011;8371;52.272;9.746;2022-12-17T10:31:09;4.37;;;4.10;;
16516;SDS011;8371;52.272;9.746;2022-12-17T10:33:56;5.83;;;5.53;;
16516;SDS011;8371;52.272;9.746;2022-12-17T10:36:47;5.00;;;4.80;;
16516;SDS011;8371;52.272;9.746;2022-12-17T10:39:33;5.00;;;4.70;;
16516;SDS011;8371;52.272;9.746;2022-12-17T10:42:22;5.50;;;5.17;;
16516;SDS011;8371;52.272;9.746;2022-12-17T10:48:22;5.20;;;4.80;;
16516;SDS011;8371;52.272;9.746;2022-12-17T10:51:30;5.03;;;4.83;;
16516;SDS011;8371;52.272;9.746;2022-12-17T10:54:25;5.17;;;4.87;;
16516;SDS011;8371;52.272;9.746;2022-12-17T10:57:19;4.83;;;4.53;;
16516;SDS011;8371;52.272;9.746;2022-12-17T11:00:05;5.63;;;5.33;;
16516;SDS011;8371;52.272;9.746;2022-12-17T11:02:58;5.93;;;5.47;;
16516;SDS011;8371;52.272;9.746;2022-12-17T11:05:42;5.90;;;5.60;;
16516;SDS011;8371;52.272;9.746;2022-12-17T11:08:27;4.97;;;4.77;;
16516;SDS011;8371;52.272;9.746;2022-12-17T11:11:14;5.17;;;4.77;;
16516;SDS011;8371;52.272;9.746;2022-12-17T11:13:59;5.00;;;4.80;;
16516;SDS011;8371;52.272;9.746;2022-12-17T11:16:48;5.20;;;5.00;;
16516;SDS011;8371;52.272;9.746;2022-12-17T11:22:37;5.17;;;4.87;;
16516;SDS011;8371;52.272;9.746;2022-12-17T11:25:39;5.10;;;4.80;;
16516;SDS011;8371;52.272;9.746;2022-12-17T11:28:35;5.57;;;5.27;;
16516;SDS011;8371;52.272;9.746;2022-12-17T11:34:34;4.53;;;4.33;;
16516;SDS011;8371;52.272;9.746;2022-12-17T11:37:21;5.17;;;4.77;;
16516;SDS011;8371;52.272;9.746;2022-12-17T11:40:24;5.50;;;5.20;;
16516;SDS011;8371;52.272;9.746;2022-12-17T11:46:32;4.67;;;4.47;;
16516;SDS011;8371;52.272;9.746;2022-12-17T11:49:53;4.33;;;4.13;;
16516;SDS011;8371;52.272;9.746;2022-12-17T11:58:21;4.17;;;3.97;;
16516;SDS011;8371;52.272;9.746;2022-12-17T12:04:05;6.23;;;4.80;;
16516;SDS011;8371;52.272;9.746;2022-12-17T12:06:53;4.57;;;4.37;;
16516;SDS011;8371;52.272;9.746;2022-12-17T12:15:41;4.40;;;4.20;;
16516;SDS011;8371;52.272;9.746;2022-12-17T12:18:45;4.70;;;4.40;;
16516;SDS011;8371;52.272;9.746;2022-12-17T12:21:37;3.80;;;3.60;;
16516;SDS011;8371;52.272;9.746;2022-12-17T12:27:33;4.13;;;3.93;;
16516;SDS011;8371;52.272;9.746;2022-12-17T12:30:20;4.53;;;4.33;;
16516;SDS011;8371;52.272;9.746;2022-12-17T12:36:02;4.50;;;4.20;;
16516;SDS011;8371;52.272;9.746;2022-12-17T12:38:51;4.97;;;4.73;;
16516;SDS011;8371;52.272;9.746;2022-12-17T12:41:50;4.13;;;3.93;;
16516;SDS011;8371;52.272;9.746;2022-12-17T12:47:42;4.63;;;4.43;;
16516;SDS011;8371;52.272;9.746;2022-12-17T12:50:38;5.13;;;4.83;;
16516;SDS011;8371;52.272;9.746;2022-12-17T12:53:26;4.60;;;4.40;;
16516;SDS011;8371;52.272;9.746;2022-12-17T12:56:26;4.57;;;4.37;;
16516;SDS011;8371;52.272;9.746;2022-12-17T12:59:20;4.47;;;4.27;;
16516;SDS011;8371;52.272;9.746;2022-12-17T13:02:29;4.70;;;4.30;;
16516;SDS011;8371;52.272;9.746;2022-12-17T13:05:30;4.20;;;4.00;;
16516;SDS011;8371;52.272;9.746;2022-12-17T13:08:20;4.93;;;4.73;;
16516;SDS011;8371;52.272;9.746;2022-12-17T13:10:47;4.60;;;4.40;;
16516;SDS011;8371;52.272;9.746;2022-12-17T13:15:45;5.17;;;4.97;;
16516;SDS011;8371;52.272;9.746;2022-12-17T13:18:18;4.63;;;4.43;;
16516;SDS011;8371;52.272;9.746;2022-12-17T13:20:55;4.90;;;4.70;;
16516;SDS011;8371;52.272;9.746;2022-12-17T13:23:25;5.27;;;4.90;;
16516;SDS011;8371;52.272;9.746;2022-12-17T13:26:11;5.47;;;5.17;;
16516;SDS011;8371;52.272;9.746;2022-12-17T13:28:57;5.43;;;5.03;;
16516;SDS011;8371;52.272;9.746;2022-12-17T13:31:18;5.57;;;5.33;;
16516;SDS011;8371;52.272;9.746;2022-12-17T13:33:54;5.13;;;4.80;;
16516;SDS011;8371;52.272;9.746;2022-12-17T13:36:25;5.13;;;4.93;;
16516;SDS011;8371;52.272;9.746;2022-12-17T13:38:56;5.00;;;4.80;;
16516;SDS011;8371;52.272;9.746;2022-12-17T13:41:30;4.77;;;4.57;;
16516;SDS011;8371;52.272;9.746;2022-12-17T13:44:01;5.07;;;4.77;;
16516;SDS011;8371;52.272;9.746;2022-12-17T13:46:40;4.63;;;4.40;;
16516;SDS011;8371;52.272;9.746;2022-12-17T13:49:20;4.87;;;4.67;;
16516;SDS011;8371;52.272;9.746;2022-12-17T13:52:04;4.77;;;4.57;;
16516;SDS011;8371;52.272;9.746;2022-12-17T13:54:32;4.47;;;4.27;;
16516;SDS011;8371;52.272;9.746;2022-12-17T13:57:08;4.50;;;4.30;;
16516;SDS011;8371;52.272;9.746;2022-12-17T13:59:35;4.57;;;4.37;;
16516;SDS011;8371;52.272;9.746;2022-12-17T14:02:02;4.60;;;4.30;;
16516;SDS011;8371;52.272;9.746;2022-12-17T14:04:28;4.23;;;4.03;;
16516;SDS011;8371;52.272;9.746;2022-12-17T14:06:56;5.13;;;4.73;;
16516;SDS011;8371;52.272;9.746;2022-12-17T14:09:27;4.87;;;4.60;;
16516;SDS011;8371;52.272;9.746;2022-12-17T14:12:05;4.40;;;4.20;;
16516;SDS011;8371;52.272;9.746;2022-12-17T14:14:44;4.63;;;4.33;;
16516;SDS011;8371;52.272;9.746;2022-12-17T14:17:19;5.37;;;5.07;;
16516;SDS011;8371;52.272;9.746;2022-12-17T14:19:57;4.00;;;3.77;;
16516;SDS011;8371;52.272;9.746;2022-12-17T14:22:32;4.17;;;3.97;;
16516;SDS011;8371;52.272;9.746;2022-12-17T14:25:00;4.33;;;4.13;;
16516;SDS011;8371;52.272;9.746;2022-12-17T14:27:31;3.97;;;3.67;;
16516;SDS011;8371;52.272;9.746;2022-12-17T14:29:59;4.27;;;3.97;;
16516;SDS011;8371;52.272;9.746;2022-12-17T14:32:31;4.33;;;4.13;;
16516;SDS011;8371;52.272;9.746;2022-12-17T14:34:57;4.13;;;3.93;;
16516;SDS011;8371;52.272;9.746;2022-12-17T14:37:24;4.20;;;4.00;;
16516;SDS011;8371;52.272;9.746;2022-12-17T14:39:51;4.10;;;3.90;;
16516;SDS011;8371;52.272;9.746;2022-12-17T14:42:21;3.57;;;3.37;;
16516;SDS011;8371;52.272;9.746;2022-12-17T14:44:57;3.80;;;3.60;;
16516;SDS011;8371;52.272;9.746;2022-12-17T14:52:45;4.00;;;3.80;;
16516;SDS011;8371;52.272;9.746;2022-12-17T15:00:58;4.30;;;4.10;;
16516;SDS011;8371;52.272;9.746;2022-12-17T15:03:26;3.93;;;3.73;;
16516;SDS011;8371;52.272;9.746;2022-12-17T15:06:02;3.83;;;3.67;;
16516;SDS011;8371;52.272;9.746;2022-12-17T15:08:31;4.60;;;4.40;;
16516;SDS011;8371;52.272;9.746;2022-12-17T15:10:58;4.10;;;3.90;;
16516;SDS011;8371;52.272;9.746;2022-12-17T15:13:24;4.30;;;4.10;;
16516;SDS011;8371;52.272;9.746;2022-12-17T15:15:50;4.30;;;4.00;;
16516;SDS011;8371;52.272;9.746;2022-12-17T15:18:15;4.60;;;4.40;;
16516;SDS011;8371;52.272;9.746;2022-12-17T15:20:41;4.67;;;4.47;;
16516;SDS011;8371;52.272;9.746;2022-12-17T15:23:12;4.87;;;4.60;;
16516;SDS011;8371;52.272;9.746;2022-12-17T15:25:39;5.07;;;4.77;;
16516;SDS011;8371;52.272;9.746;2022-12-17T15:28:05;4.53;;;4.33;;
16516;SDS011;8371;52.272;9.746;2022-12-17T15:30:30;5.13;;;4.83;;
16516;SDS011;8371;52.272;9.746;2022-12-17T15:32:56;5.03;;;4.73;;
16516;SDS011;8371;52.272;9.746;2022-12-17T15:35:22;5.00;;;4.60;;
16516;SDS011;8371;52.272;9.746;2022-12-17T15:37:47;5.20;;;4.80;;
16516;SDS011;8371;52.272;9.746;2022-12-17T15:40:13;5.43;;;5.13;;
16516;SDS011;8371;52.272;9.746;2022-12-17T15:42:39;5.60;;;5.30;;
16516;SDS011;8371;52.272;9.746;2022-12-17T15:45:23;5.73;;;5.43;;
16516;SDS011;8371;52.272;9.746;2022-12-17T15:47:48;5.43;;;5.10;;
16516;SDS011;8371;52.272;9.746;2022-12-17T15:50:14;5.47;;;5.07;;
16516;SDS011;8371;52.272;9.746;2022-12-17T15:52:40;5.70;;;5.40;;
16516;SDS011;8371;52.272;9.746;2022-12-17T15:55:06;5.73;;;5.43;;
16516;SDS011;8371;52.272;9.746;2022-12-17T15:57:32;5.70;;;5.40;;
16516;SDS011;8371;52.272;9.746;2022-12-17T15:59:58;5.67;;;5.27;;
16516;SDS011;8371;52.272;9.746;2022-12-17T16:02:23;5.67;;;5.30;;
16516;SDS011;8371;52.272;9.746;2022-12-17T16:04:49;5.90;;;5.60;;
16516;SDS011;8371;52.272;9.746;2022-12-17T16:07:15;5.27;;;4.97;;
16516;SDS011;8371;52.272;9.746;2022-12-17T16:09:40;5.63;;;5.33;;
16516;SDS011;8371;52.272;9.746;2022-12-17T16:12:06;4.87;;;4.67;;
16516;SDS011;8371;52.272;9.746;2022-12-17T16:14:32;5.03;;;4.77;;
16516;SDS011;8371;52.272;9.746;2022-12-17T16:16:57;4.13;;;3.93;;
16516;SDS011;8371;52.272;9.746;2022-12-17T16:19:23;4.87;;;4.67;;
16516;SDS011;8371;52.272;9.746;2022-12-17T16:21:49;4.70;;;4.50;;
16516;SDS011;8371;52.272;9.746;2022-12-17T16:24:15;5.00;;;4.70;;
16516;SDS011;8371;52.272;9.746;2022-12-17T16:26:40;5.13;;;4.87;;
16516;SDS011;8371;52.272;9.746;2022-12-17T16:29:06;5.07;;;4.77;;
16516;SDS011;8371;52.272;9.746;2022-12-17T16:31:32;5.47;;;5.17;;
16516;SDS011;8371;52.272;9.746;2022-12-17T16:33:57;5.50;;;5.20;;
16516;SDS011;8371;52.272;9.746;2022-12-17T16:36:23;5.83;;;5.53;;
16516;SDS011;8371;52.272;9.746;2022-12-17T16:38:50;6.03;;;5.63;;
16516;SDS011;8371;52.272;9.746;2022-12-17T16:41:17;5.43;;;5.13;;
16516;SDS011;8371;52.272;9.746;2022-12-17T16:43:44;5.63;;;5.33;;
16516;SDS011;8371;52.272;9.746;2022-12-17T16:48:59;5.73;;;5.43;;
16516;SDS011;8371;52.272;9.746;2022-12-17T16:51:30;5.23;;;4.83;;
16516;SDS011;8371;52.272;9.746;2022-12-17T16:53:56;4.97;;;4.53;;
16516;SDS011;8371;52.272;9.746;2022-12-17T16:56:24;5.77;;;5.50;;
16516;SDS011;8371;52.272;9.746;2022-12-17T16:58:52;5.03;;;4.63;;
16516;SDS011;8371;52.272;9.746;2022-12-17T17:01:19;5.60;;;5.20;;
16516;SDS011;8371;52.272;9.746;2022-12-17T17:03:46;5.70;;;5.37;;
16516;SDS011;8371;52.272;9.746;2022-12-17T17:06:13;5.03;;;4.73;;
16516;SDS011;8371;52.272;9.746;2022-12-17T17:08:40;5.37;;;4.97;;
16516;SDS011;8371;52.272;9.746;2022-12-17T17:13:40;5.30;;;5.00;;
16516;SDS011;8371;52.272;9.746;2022-12-17T17:16:07;6.43;;;5.90;;
16516;SDS011;8371;52.272;9.746;2022-12-17T17:18:34;5.90;;;5.50;;
16516;SDS011;8371;52.272;9.746;2022-12-17T17:21:22;5.77;;;5.47;;
16516;SDS011;8371;52.272;9.746;2022-12-17T17:23:50;5.83;;;5.50;;
16516;SDS011;8371;52.272;9.746;2022-12-17T17:26:18;6.40;;;6.00;;
16516;SDS011;8371;52.272;9.746;2022-12-17T17:28:45;5.93;;;5.53;;
16516;SDS011;8371;52.272;9.746;2022-12-17T17:31:11;5.87;;;5.50;;
16516;SDS011;8371;52.272;9.746;2022-12-17T17:33:39;6.07;;;5.63;;
16516;SDS011;8371;52.272;9.746;2022-12-17T17:36:11;5.57;;;5.27;;
16516;SDS011;8371;52.272;9.746;2022-12-17T17:38:39;5.67;;;5.37;;
16516;SDS011;8371;52.272;9.746;2022-12-17T17:41:05;6.30;;;5.87;;